sensor_id;sensor_type;location;lat;lon;timestamp;pressure;altitude;pressure_sealevel;temperature;humidity
42691;BME280;28306;55.744;37.578;2022-12-29T00:02:15;99540.44;;;28.19;17.85
42691;BME280;28306;55.744;37.578;2022-12-29T00:04:41;99523.72;;;28.20;17.35
42691;BME280;28306;55.744;37.578;2022-12-29T00:07:07;99530.25;;;28.25;17.40
42691;BME280;28306;55.744;37.578;2022-12-29T00:09:34;99537.34;;;28.26;17.60
42691;BME280;28306;55.744;37.578;2022-12-29T00:12:01;99540.91;;;28.26;17.71
42691;BME280;28306;55.744;37.578;2022-12-29T00:14:27;99534.09;;;28.23;17.65
42691;BME280;28306;55.744;37.578;2022-12-29T00:17:11;99528.97;;;28.17;17.70
42691;BME280;28306;55.744;37.578;2022-12-29T00:19:37;99540.06;;;28.26;17.53
42691;BME280;28306;55.744;37.578;2022-12-29T00:22:21;99542.81;;;28.26;17.70
42691;BME280;28306;55.744;37.578;2022-12-29T00:25:08;99551.84;;;28.26;17.77
42691;BME280;28306;55.744;37.578;2022-12-29T00:27:34;99550.22;;;28.25;17.51
42691;BME280;28306;55.744;37.578;2022-12-29T00:30:23;99550.22;;;28.25;17.63
42691;BME280;28306;55.744;37.578;2022-12-29T00:33:18;99537.47;;;28.15;17.54
42691;BME280;28306;55.744;37.578;2022-12-29T00:36:07;99554.59;;;28.26;17.82
42691;BME280;28306;55.744;37.578;2022-12-29T00:38:37;99555.16;;;28.23;17.91
42691;BME280;28306;55.744;37.578;2022-12-29T00:41:24;99554.34;;;28.22;17.66
42691;BME280;28306;55.744;37.578;2022-12-29T00:44:10;99562.25;;;28.24;17.67
42691;BME280;28306;55.744;37.578;2022-12-29T00:46:38;99558.50;;;28.15;17.83
42691;BME280;28306;55.744;37.578;2022-12-29T00:49:05;99562.81;;;28.21;17.89
42691;BME280;28306;55.744;37.578;2022-12-29T00:51:49;99559.28;;;28.20;17.71
42691;BME280;28306;55.744;37.578;2022-12-29T00:54:15;99556.31;;;28.17;17.71
42691;BME280;28306;55.744;37.578;2022-12-29T00:56:41;99565.28;;;28.22;17.91
42691;BME280;28306;55.744;37.578;2022-12-29T00:59:09;99557.94;;;28.18;17.63
42691;BME280;28306;55.744;37.578;2022-12-29T01:01:36;99563.47;;;28.13;17.43
42691;BME280;28306;55.744;37.578;2022-12-29T01:04:03;99578.44;;;28.20;17.65
42691;BME280;28306;55.744;37.578;2022-12-29T01:06:28;99568.31;;;28.21;17.59
42691;BME280;28306;55.744;37.578;2022-12-29T01:08:54;99574.59;;;28.21;17.64
42691;BME280;28306;55.744;37.578;2022-12-29T01:11:39;99565.34;;;28.17;17.58
42691;BME280;28306;55.744;37.578;2022-12-29T01:14:06;99576.50;;;28.21;17.50
42691;BME280;28306;55.744;37.578;2022-12-29T01:16:32;99566.41;;;28.21;17.72
42691;BME280;28306;55.744;37.578;2022-12-29T01:18:58;99579.25;;;28.21;17.33
42691;BME280;28306;55.744;37.578;2022-12-29T01:21:24;99586.66;;;28.20;17.55
42691;BME280;28306;55.744;37.578;2022-12-29T01:23:50;99587.44;;;28.21;17.58
42691;BME280;28306;55.744;37.578;2022-12-29T01:26:17;99584.50;;;28.17;17.40
42691;BME280;28306;55.744;37.578;2022-12-29T01:28:43;99583.91;;;28.20;17.65
42691;BME280;28306;55.744;37.578;2022-12-29T01:31:10;99589.44;;;28.15;17.55
42691;BME280;28306;55.744;37.578;2022-12-29T01:33:36;99592.41;;;28.19;17.68
42691;BME280;28306;55.744;37.578;2022-12-29T01:36:04;99579.38;;;28.11;17.44
42691;BME280;28306;55.744;37.578;2022-12-29T01:38:30;99593.28;;;28.14;17.58
42691;BME280;28306;55.744;37.578;2022-12-29T01:40:56;99568.50;;;28.00;17.38
42691;BME280;28306;55.744;37.578;2022-12-29T01:43:41;99597.00;;;28.23;17.52
42691;BME280;28306;55.744;37.578;2022-12-29T01:46:40;99592.06;;;28.26;17.46
42691;BME280;28306;55.744;37.578;2022-12-29T01:49:17;99592.63;;;28.22;17.71
42691;BME280;28306;55.744;37.578;2022-12-29T01:51:51;99589.66;;;28.19;17.51
42691;BME280;28306;55.744;37.578;2022-12-29T01:54:34;99594.03;;;28.20;17.70
42691;BME280;28306;55.744;37.578;2022-12-29T01:57:08;99588.00;;;28.23;17.88
42691;BME280;28306;55.744;37.578;2022-12-29T01:59:43;99590.19;;;28.21;17.59
42691;BME280;28306;55.744;37.578;2022-12-29T02:02:11;99599.50;;;28.20;17.66
42691;BME280;28306;55.744;37.578;2022-12-29T02:04:40;99591.59;;;28.18;17.41
42691;BME280;28306;55.744;37.578;2022-12-29T02:07:17;99597.31;;;28.22;17.51
42691;BME280;28306;55.744;37.578;2022-12-29T02:09:43;99599.50;;;28.20;17.55
42691;BME280;28306;55.744;37.578;2022-12-29T02:12:12;99603.13;;;28.15;17.53
42691;BME280;28306;55.744;37.578;2022-12-29T02:14:37;99603.34;;;28.19;17.60
42691;BME280;28306;55.744;37.578;2022-12-29T02:36:17;99603.63;;;28.17;17.88
42691;BME280;28306;55.744;37.578;2022-12-29T02:39:09;99605.28;;;28.18;17.67
42691;BME280;28306;55.744;37.578;2022-12-29T02:49:59;99617.25;;;28.22;17.52
42691;BME280;28306;55.744;37.578;2022-12-29T02:52:31;99634.25;;;28.19;17.93
42691;BME280;28306;55.744;37.578;2022-12-29T02:54:59;99626.88;;;28.20;17.93
42691;BME280;28306;55.744;37.578;2022-12-29T02:59:56;99619.75;;;28.19;17.91
42691;BME280;28306;55.744;37.578;2022-12-29T03:07:55;99634.25;;;28.19;17.86
42691;BME280;28306;55.744;37.578;2022-12-29T03:10:51;99634.22;;;28.25;17.40
42691;BME280;28306;55.744;37.578;2022-12-29T03:13:39;99631.00;;;28.17;17.19
42691;BME280;28306;55.744;37.578;2022-12-29T03:17:01;99638.03;;;28.23;17.18
42691;BME280;28306;55.744;37.578;2022-12-29T03:19:36;99636.53;;;28.12;17.47
42691;BME280;28306;55.744;37.578;2022-12-29T03:22:19;99643.56;;;28.18;17.36
42691;BME280;28306;55.744;37.578;2022-12-29T03:25:03;99649.06;;;28.13;16.89
42691;BME280;28306;55.744;37.578;2022-12-29T03:27:34;99641.16;;;28.12;16.93
42691;BME280;28306;55.744;37.578;2022-12-29T03:30:03;99637.41;;;28.02;17.26
42691;BME280;28306;55.744;37.578;2022-12-29T03:32:34;99648.56;;;28.11;17.35
42691;BME280;28306;55.744;37.578;2022-12-29T03:35:03;99656.25;;;28.09;16.80
42691;BME280;28306;55.744;37.578;2022-12-29T03:37:35;99660.34;;;28.07;16.79
42691;BME280;28306;55.744;37.578;2022-12-29T03:40:04;99655.97;;;28.05;16.62
42691;BME280;28306;55.744;37.578;2022-12-29T03:42:32;99661.44;;;28.05;17.05
42691;BME280;28306;55.744;37.578;2022-12-29T03:45:00;99656.53;;;28.08;17.19
42691;BME280;28306;55.744;37.578;2022-12-29T03:47:26;99661.16;;;28.07;16.86
42691;BME280;28306;55.744;37.578;2022-12-29T03:49:52;99666.63;;;28.07;17.02
42691;BME280;28306;55.744;37.578;2022-12-29T03:52:18;99680.31;;;28.07;16.95
42691;BME280;28306;55.744;37.578;2022-12-29T03:54:45;99678.69;;;28.06;16.71
42691;BME280;28306;55.744;37.578;2022-12-29T03:57:12;99669.13;;;28.03;16.96
42691;BME280;28306;55.744;37.578;2022-12-29T03:59:58;99669.38;;;28.07;16.83
42691;BME280;28306;55.744;37.578;2022-12-29T04:02:23;99673.22;;;28.06;16.99
42691;BME280;28306;55.744;37.578;2022-12-29T04:04:49;99672.16;;;28.02;17.10
42691;BME280;28306;55.744;37.578;2022-12-29T04:07:15;99684.97;;;28.07;16.91
42691;BME280;28306;55.744;37.578;2022-12-29T04:09:41;99680.13;;;27.98;16.76
42691;BME280;28306;55.744;37.578;2022-12-29T04:12:10;99675.44;;;27.99;16.78
42691;BME280;28306;55.744;37.578;2022-12-29T04:14:36;99681.72;;;28.04;16.61
42691;BME280;28306;55.744;37.578;2022-12-29T04:17:02;99680.88;;;28.04;16.85
42691;BME280;28306;55.744;37.578;2022-12-29T04:19:28;99680.88;;;28.04;16.90
42691;BME280;28306;55.744;37.578;2022-12-29T04:21:54;99650.41;;;27.81;16.89
42691;BME280;28306;55.744;37.578;2022-12-29T04:24:20;99686.34;;;28.04;16.92
42691;BME280;28306;55.744;37.578;2022-12-29T04:26:48;99680.91;;;27.99;16.92
42691;BME280;28306;55.744;37.578;2022-12-29T04:29:29;99684.72;;;28.03;16.88
42691;BME280;28306;55.744;37.578;2022-12-29T04:32:11;99654.50;;;27.84;16.98
42691;BME280;28306;55.744;37.578;2022-12-29T04:34:42;99686.06;;;28.05;16.84
42691;BME280;28306;55.744;37.578;2022-12-29T04:37:08;99684.97;;;28.07;17.16
42691;BME280;28306;55.744;37.578;2022-12-29T04:39:33;99675.97;;;28.01;17.00
42691;BME280;28306;55.744;37.578;2022-12-29T04:41:59;99693.16;;;28.07;16.80
42691;BME280;28306;55.744;37.578;2022-12-29T04:44:25;99678.75;;;27.96;17.00
42691;BME280;28306;55.744;37.578;2022-12-29T04:46:57;99687.50;;;27.98;16.81
42691;BME280;28306;55.744;37.578;2022-12-29T04:49:39;99699.44;;;28.07;16.74
42691;BME280;28306;55.744;37.578;2022-12-29T04:52:23;99702.19;;;28.07;16.81
42691;BME280;28306;55.744;37.578;2022-12-29T04:54:50;99703.31;;;28.06;17.04
42691;BME280;28306;55.744;37.578;2022-12-29T04:57:18;99693.50;;;28.00;16.94
42691;BME280;28306;55.744;37.578;2022-12-29T04:59:49;99703.88;;;28.03;17.06
42691;BME280;28306;55.744;37.578;2022-12-29T05:02:15;99701.13;;;28.03;17.10
42691;BME280;28306;55.744;37.578;2022-12-29T05:04:43;99694.88;;;27.97;16.89
42691;BME280;28306;55.744;37.578;2022-12-29T05:07:09;99706.34;;;27.99;17.04
42691;BME280;28306;55.744;37.578;2022-12-29T05:09:36;99716.72;;;28.02;17.12
42691;BME280;28306;55.744;37.578;2022-12-29T05:12:02;99726.28;;;28.05;17.11
42691;BME280;28306;55.744;37.578;2022-12-29T05:14:30;99724.34;;;28.05;17.15
42691;BME280;28306;55.744;37.578;2022-12-29T05:16:56;99713.41;;;28.05;16.83
42691;BME280;28306;55.744;37.578;2022-12-29T05:19:21;99728.72;;;28.07;17.10
42691;BME280;28306;55.744;37.578;2022-12-29T05:21:47;99725.19;;;28.06;16.87
42691;BME280;28306;55.744;37.578;2022-12-29T05:24:13;99721.38;;;28.02;16.85
42691;BME280;28306;55.744;37.578;2022-12-29T05:26:40;99717.25;;;28.04;16.93
42691;BME280;28306;55.744;37.578;2022-12-29T05:29:12;99713.41;;;28.05;17.04
42691;BME280;28306;55.744;37.578;2022-12-29T05:31:38;99726.56;;;28.03;16.80
42691;BME280;28306;55.744;37.578;2022-12-29T05:34:05;99724.63;;;28.04;16.71
42691;BME280;28306;55.744;37.578;2022-12-29T05:36:31;99717.88;;;27.96;16.99
42691;BME280;28306;55.744;37.578;2022-12-29T05:38:59;99732.84;;;28.04;16.97
42691;BME280;28306;55.744;37.578;2022-12-29T05:41:24;99729.06;;;28.00;17.06
42691;BME280;28306;55.744;37.578;2022-12-29T05:44:10;99743.78;;;28.04;16.98
42691;BME280;28306;55.744;37.578;2022-12-29T05:46:45;99739.94;;;28.05;17.04
42691;BME280;28306;55.744;37.578;2022-12-29T05:49:34;99738.31;;;28.04;16.94
42691;BME280;28306;55.744;37.578;2022-12-29T05:52:08;99721.16;;;27.88;16.99
42691;BME280;28306;55.744;37.578;2022-12-29T05:54:34;99735.34;;;28.00;16.76
42691;BME280;28306;55.744;37.578;2022-12-29T05:57:01;99736.44;;;27.99;16.67
42691;BME280;28306;55.744;37.578;2022-12-29T05:59:27;99741.09;;;27.99;16.73
42691;BME280;28306;55.744;37.578;2022-12-29T06:01:54;99748.25;;;27.95;16.58
42691;BME280;28306;55.744;37.578;2022-12-29T06:04:19;99742.19;;;27.93;16.84
42691;BME280;28306;55.744;37.578;2022-12-29T06:06:46;99742.22;;;27.98;16.63
42691;BME280;28306;55.744;37.578;2022-12-29T06:09:20;99738.38;;;27.94;16.68
42691;BME280;28306;55.744;37.578;2022-12-29T06:11:46;99744.94;;;27.98;16.66
42691;BME280;28306;55.744;37.578;2022-12-29T06:14:12;99750.94;;;28.00;16.88
42691;BME280;28306;55.744;37.578;2022-12-29T06:16:37;99754.47;;;28.00;16.87
42691;BME280;28306;55.744;37.578;2022-12-29T06:19:07;99748.19;;;28.00;16.68
42691;BME280;28306;55.744;37.578;2022-12-29T06:21:33;99742.72;;;28.00;16.65
42691;BME280;28306;55.744;37.578;2022-12-29T06:24:00;99744.34;;;28.01;16.91
42691;BME280;28306;55.744;37.578;2022-12-29T06:26:25;99749.00;;;28.00;16.80
42691;BME280;28306;55.744;37.578;2022-12-29T06:28:51;99747.38;;;27.99;16.67
42691;BME280;28306;55.744;37.578;2022-12-29T06:31:17;99743.28;;;27.97;16.76
42691;BME280;28306;55.744;37.578;2022-12-29T06:33:43;99756.41;;;28.00;16.88
42691;BME280;28306;55.744;37.578;2022-12-29T06:36:09;99761.34;;;27.98;16.62
42691;BME280;28306;55.744;37.578;2022-12-29T06:38:34;99751.22;;;27.93;16.80
42691;BME280;28306;55.744;37.578;2022-12-29T06:41:00;99750.69;;;27.91;16.55
42691;BME280;28306;55.744;37.578;2022-12-29T06:43:38;99763.25;;;27.97;16.49
42691;BME280;28306;55.744;37.578;2022-12-29T06:46:24;99763.53;;;27.96;16.69
42691;BME280;28306;55.744;37.578;2022-12-29T06:48:49;99754.78;;;27.94;16.60
42691;BME280;28306;55.744;37.578;2022-12-29T06:51:15;99759.19;;;27.95;16.62
42691;BME280;28306;55.744;37.578;2022-12-29T06:53:40;99759.19;;;27.95;16.76
42691;BME280;28306;55.744;37.578;2022-12-29T06:56:06;99750.72;;;27.86;16.46
42691;BME280;28306;55.744;37.578;2022-12-29T06:58:32;99753.16;;;27.87;16.58
42691;BME280;28306;55.744;37.578;2022-12-29T07:00:58;99756.97;;;27.92;16.37
42691;BME280;28306;55.744;37.578;2022-12-29T07:03:23;99747.94;;;27.91;16.41
42691;BME280;28306;55.744;37.578;2022-12-29T07:05:49;99756.16;;;27.91;16.65
42691;BME280;28306;55.744;37.578;2022-12-29T07:08:15;99749.59;;;27.92;16.47
42691;BME280;28306;55.744;37.578;2022-12-29T07:10:40;99749.59;;;27.92;16.66
42691;BME280;28306;55.744;37.578;2022-12-29T07:13:06;99751.00;;;27.84;16.58
42691;BME280;28306;55.744;37.578;2022-12-29T07:15:33;99768.50;;;27.89;16.44
42691;BME280;28306;55.744;37.578;2022-12-29T07:17:59;99761.38;;;27.87;16.34
42691;BME280;28306;55.744;37.578;2022-12-29T07:20:25;99768.22;;;27.90;16.63
42691;BME280;28306;55.744;37.578;2022-12-29T07:22:50;99764.09;;;27.87;16.50
42691;BME280;28306;55.744;37.578;2022-12-29T07:25:16;99762.47;;;27.86;16.40
42691;BME280;28306;55.744;37.578;2022-12-29T07:27:41;99770.09;;;27.90;16.46
42691;BME280;28306;55.744;37.578;2022-12-29T07:30:08;99755.94;;;27.77;16.42
42691;BME280;28306;55.744;37.578;2022-12-29T07:32:34;99769.56;;;27.87;16.43
42691;BME280;28306;55.744;37.578;2022-12-29T07:35:00;99757.06;;;27.76;16.51
42691;BME280;28306;55.744;37.578;2022-12-29T07:37:25;99768.50;;;27.83;16.36
42691;BME280;28306;55.744;37.578;2022-12-29T07:39:51;99755.66;;;27.79;16.64
42691;BME280;28306;55.744;37.578;2022-12-29T07:42:16;99768.78;;;27.87;16.34
42691;BME280;28306;55.744;37.578;2022-12-29T07:44:49;99761.41;;;27.82;16.31
42691;BME280;28306;55.744;37.578;2022-12-29T07:47:26;99775.84;;;27.88;16.33
42691;BME280;28306;55.744;37.578;2022-12-29T07:49:52;99774.25;;;27.87;16.46
42691;BME280;28306;55.744;37.578;2022-12-29T07:52:17;99764.16;;;27.82;16.53
42691;BME280;28306;55.744;37.578;2022-12-29T07:54:43;99778.88;;;27.86;16.25
42691;BME280;28306;55.744;37.578;2022-12-29T07:57:08;99774.53;;;27.80;16.60
42691;BME280;28306;55.744;37.578;2022-12-29T07:59:34;99774.00;;;27.78;16.52
42691;BME280;28306;55.744;37.578;2022-12-29T08:02:00;99787.91;;;27.82;16.47
42691;BME280;28306;55.744;37.578;2022-12-29T08:04:26;99783.81;;;27.84;16.32
42691;BME280;28306;55.744;37.578;2022-12-29T08:06:51;99782.16;;;27.83;16.54
42691;BME280;28306;55.744;37.578;2022-12-29T08:09:17;99786.53;;;27.84;16.56
42691;BME280;28306;55.744;37.578;2022-12-29T08:11:43;99793.94;;;27.84;16.49
42691;BME280;28306;55.744;37.578;2022-12-29T08:14:09;99794.47;;;27.86;16.38
42691;BME280;28306;55.744;37.578;2022-12-29T08:16:35;99789.88;;;27.76;16.59
42691;BME280;28306;55.744;37.578;2022-12-29T08:19:01;99799.69;;;27.82;16.63
42691;BME280;28306;55.744;37.578;2022-12-29T08:21:27;99805.16;;;27.82;16.58
42691;BME280;28306;55.744;37.578;2022-12-29T08:23:53;99796.41;;;27.85;16.58
42691;BME280;28306;55.744;37.578;2022-12-29T08:26:19;99803.47;;;27.86;16.70
42691;BME280;28306;55.744;37.578;2022-12-29T08:28:45;99791.72;;;27.86;16.38
42691;BME280;28306;55.744;37.578;2022-12-29T08:31:10;99793.09;;;27.83;16.30
42691;BME280;28306;55.744;37.578;2022-12-29T08:33:36;99803.75;;;27.85;16.36
42691;BME280;28306;55.744;37.578;2022-12-29T08:36:03;99806.78;;;27.83;16.54
42691;BME280;28306;55.744;37.578;2022-12-29T08:38:29;99801.31;;;27.83;16.53
42691;BME280;28306;55.744;37.578;2022-12-29T08:40:56;99804.59;;;27.80;16.71
42691;BME280;28306;55.744;37.578;2022-12-29T08:43:22;99799.94;;;27.86;16.77
42691;BME280;28306;55.744;37.578;2022-12-29T08:45:48;99789.03;;;27.81;16.66
42691;BME280;28306;55.744;37.578;2022-12-29T08:48:14;99784.94;;;27.78;16.69
42691;BME280;28306;55.744;37.578;2022-12-29T08:50:44;99796.91;;;27.87;16.79
42691;BME280;28306;55.744;37.578;2022-12-29T08:53:10;99783.84;;;27.79;16.79
42691;BME280;28306;55.744;37.578;2022-12-29T08:55:35;99785.75;;;27.84;16.47
42691;BME280;28306;55.744;37.578;2022-12-29T08:58:01;99781.91;;;27.80;16.72
42691;BME280;28306;55.744;37.578;2022-12-29T09:00:27;99793.09;;;27.83;16.98
42691;BME280;28306;55.744;37.578;2022-12-29T09:02:52;99786.81;;;27.83;16.82
42691;BME280;28306;55.744;37.578;2022-12-29T09:05:18;99793.63;;;27.91;16.93
42691;BME280;28306;55.744;37.578;2022-12-29T09:07:44;99798.56;;;27.89;16.83
42691;BME280;28306;55.744;37.578;2022-12-29T09:10:09;99800.72;;;27.92;16.97
42691;BME280;28306;55.744;37.578;2022-12-29T09:12:35;99813.28;;;27.93;17.18
42691;BME280;28306;55.744;37.578;2022-12-29T09:15:01;99792.53;;;27.86;17.34
42691;BME280;28306;55.744;37.578;2022-12-29T09:17:27;99807.81;;;27.93;16.95
42691;BME280;28306;55.744;37.578;2022-12-29T09:20:09;99809.22;;;27.95;16.81
42691;BME280;28306;55.744;37.578;2022-12-29T09:22:35;99801.00;;;27.95;16.89
42691;BME280;28306;55.744;37.578;2022-12-29T09:25:01;99795.00;;;27.88;16.99
42691;BME280;28306;55.744;37.578;2022-12-29T09:27:27;99794.97;;;27.93;16.89
42691;BME280;28306;55.744;37.578;2022-12-29T09:29:52;99801.53;;;27.92;17.05
42691;BME280;28306;55.744;37.578;2022-12-29T09:32:18;99801.00;;;27.95;17.00
42691;BME280;28306;55.744;37.578;2022-12-29T09:34:44;99805.38;;;27.96;17.05
42691;BME280;28306;55.744;37.578;2022-12-29T09:37:09;99777.53;;;27.84;16.95
42691;BME280;28306;55.744;37.578;2022-12-29T09:39:35;99800.44;;;27.98;16.99
42691;BME280;28306;55.744;37.578;2022-12-29T09:42:06;99800.97;;;28.00;17.06
42691;BME280;28306;55.744;37.578;2022-12-29T09:44:55;99794.94;;;28.03;17.07
42691;BME280;28306;55.744;37.578;2022-12-29T09:47:23;99790.59;;;27.92;16.90
42691;BME280;28306;55.744;37.578;2022-12-29T09:49:53;99811.91;;;28.00;16.97
42691;BME280;28306;55.744;37.578;2022-12-29T09:52:26;99797.47;;;27.95;16.88
42691;BME280;28306;55.744;37.578;2022-12-29T09:55:10;99798.22;;;28.00;16.86
42691;BME280;28306;55.744;37.578;2022-12-29T10:00:12;99803.72;;;28.00;17.34
42691;BME280;28306;55.744;37.578;2022-12-29T10:02:43;99811.09;;;28.00;17.07
42691;BME280;28306;55.744;37.578;2022-12-29T10:10:51;99796.34;;;27.96;17.21
42691;BME280;28306;55.744;37.578;2022-12-29T10:16:14;99787.59;;;27.94;17.45
42691;BME280;28306;55.744;37.578;2022-12-29T10:23:53;99804.22;;;28.08;17.10
42691;BME280;28306;55.744;37.578;2022-12-29T10:26:27;99802.06;;;27.99;17.10
42691;BME280;28306;55.744;37.578;2022-12-29T10:29:04;99803.38;;;28.07;17.47
42691;BME280;28306;55.744;37.578;2022-12-29T10:31:39;99804.78;;;28.04;17.39
42691;BME280;28306;55.744;37.578;2022-12-29T10:34:19;99805.59;;;28.05;17.24
42691;BME280;28306;55.744;37.578;2022-12-29T10:36:48;99806.69;;;28.04;17.35
42691;BME280;28306;55.744;37.578;2022-12-29T10:39:33;99801.78;;;28.06;17.28
42691;BME280;28306;55.744;37.578;2022-12-29T10:44:59;99798.47;;;28.04;17.25
42691;BME280;28306;55.744;37.578;2022-12-29T10:47:29;99812.16;;;28.04;17.24
42691;BME280;28306;55.744;37.578;2022-12-29T10:49:57;99806.69;;;28.04;17.13
42691;BME280;28306;55.744;37.578;2022-12-29T10:52:25;99802.34;;;28.03;17.31
42691;BME280;28306;55.744;37.578;2022-12-29T10:54:59;99805.31;;;28.07;17.30
42691;BME280;28306;55.744;37.578;2022-12-29T10:57:31;99802.84;;;28.05;17.24
42691;BME280;28306;55.744;37.578;2022-12-29T10:59:58;99796.88;;;28.03;17.37
42691;BME280;28306;55.744;37.578;2022-12-29T11:07:22;99788.09;;;28.06;17.64
42691;BME280;28306;55.744;37.578;2022-12-29T11:09:48;99762.97;;;27.94;17.51
42691;BME280;28306;55.744;37.578;2022-12-29T11:12:32;99777.44;;;28.04;17.36
42691;BME280;28306;55.744;37.578;2022-12-29T11:15:11;99787.81;;;28.08;16.89
42691;BME280;28306;55.744;37.578;2022-12-29T11:17:49;99772.53;;;28.01;17.07
42691;BME280;28306;55.744;37.578;2022-12-29T11:20:35;99796.28;;;28.06;17.00
42691;BME280;28306;55.744;37.578;2022-12-29T11:23:05;99788.09;;;28.01;16.99
42691;BME280;28306;55.744;37.578;2022-12-29T11:25:31;99790.03;;;28.00;17.05
42691;BME280;28306;55.744;37.578;2022-12-29T11:28:14;99781.25;;;28.03;17.30
42691;BME280;28306;55.744;37.578;2022-12-29T11:30:41;99778.00;;;28.01;17.22
42691;BME280;28306;55.744;37.578;2022-12-29T11:33:08;99787.59;;;27.99;17.16
42691;BME280;28306;55.744;37.578;2022-12-29T11:38:06;99778.56;;;27.98;16.99
42691;BME280;28306;55.744;37.578;2022-12-29T11:40:42;99759.72;;;27.86;17.01
42691;BME280;28306;55.744;37.578;2022-12-29T11:43:26;99783.19;;;28.03;16.88
42691;BME280;28306;55.744;37.578;2022-12-29T11:45:55;99778.28;;;28.00;17.12
42691;BME280;28306;55.744;37.578;2022-12-29T11:48:22;99774.72;;;27.99;17.14
42691;BME280;28306;55.744;37.578;2022-12-29T11:50:56;99773.91;;;27.99;16.82
42691;BME280;28306;55.744;37.578;2022-12-29T11:53:31;99787.88;;;27.97;17.26
42691;BME280;28306;55.744;37.578;2022-12-29T11:56:01;99792.25;;;27.98;17.19
42691;BME280;28306;55.744;37.578;2022-12-29T11:58:32;99797.72;;;27.98;17.24
42691;BME280;28306;55.744;37.578;2022-12-29T12:03:32;99767.72;;;27.78;16.90
42691;BME280;28306;55.744;37.578;2022-12-29T12:06:01;99801.81;;;27.96;17.09
42691;BME280;28306;55.744;37.578;2022-12-29T12:08:41;99809.97;;;28.01;16.98
42691;BME280;28306;55.744;37.578;2022-12-29T12:11:24;99809.22;;;27.95;17.26
42691;BME280;28306;55.744;37.578;2022-12-29T12:13:59;99821.19;;;27.99;17.24
42691;BME280;28306;55.744;37.578;2022-12-29T12:16:40;99805.38;;;27.91;17.24
42691;BME280;28306;55.744;37.578;2022-12-29T12:21:56;99814.94;;;27.99;16.95
42691;BME280;28306;55.744;37.578;2022-12-29T12:24:45;99805.91;;;27.98;17.27
42691;BME280;28306;55.744;37.578;2022-12-29T12:27:24;99794.69;;;28.00;17.12
42691;BME280;28306;55.744;37.578;2022-12-29T12:30:14;99798.53;;;27.99;17.05
42691;BME280;28306;55.744;37.578;2022-12-29T12:32:58;99804.78;;;27.99;17.17
42691;BME280;28306;55.744;37.578;2022-12-29T12:35:40;99809.41;;;28.04;17.25
42691;BME280;28306;55.744;37.578;2022-12-29T12:38:31;99809.13;;;28.05;17.17
42691;BME280;28306;55.744;37.578;2022-12-29T12:41:11;99806.97;;;28.02;17.06
42691;BME280;28306;55.744;37.578;2022-12-29T12:47:44;99794.69;;;28.00;16.97
42691;BME280;28306;55.744;37.578;2022-12-29T13:00:27;99796.06;;;27.97;17.26
42691;BME280;28306;55.744;37.578;2022-12-29T13:08:19;99795.78;;;27.99;17.37
42691;BME280;28306;55.744;37.578;2022-12-29T13:18:18;99800.44;;;27.98;17.08
42691;BME280;28306;55.744;37.578;2022-12-29T13:26:11;99807.25;;;28.01;17.31
42691;BME280;28306;55.744;37.578;2022-12-29T13:28:51;99786.50;;;27.90;17.38
42691;BME280;28306;55.744;37.578;2022-12-29T13:31:38;99805.88;;;28.03;17.29
42691;BME280;28306;55.744;37.578;2022-12-29T13:37:20;99799.31;;;27.99;17.26
42691;BME280;28306;55.744;37.578;2022-12-29T13:39:54;99796.59;;;27.99;17.21
42691;BME280;28306;55.744;37.578;2022-12-29T13:42:22;99804.00;;;27.99;16.99
42691;BME280;28306;55.744;37.578;2022-12-29T13:45:00;99796.31;;;28.01;17.18
42691;BME280;28306;55.744;37.578;2022-12-29T13:47:36;99798.81;;;27.97;17.07
42691;BME280;28306;55.744;37.578;2022-12-29T13:50:05;99793.31;;;27.97;17.13
42691;BME280;28306;55.744;37.578;2022-12-29T13:52:59;99793.28;;;28.02;17.22
42691;BME280;28306;55.744;37.578;2022-12-29T13:55:51;99793.84;;;28.04;17.25
42691;BME280;28306;55.744;37.578;2022-12-29T14:01:00;99793.56;;;28.01;17.29
42691;BME280;28306;55.744;37.578;2022-12-29T14:08:33;99793.31;;;27.97;17.37
42691;BME280;28306;55.744;37.578;2022-12-29T14:11:06;99776.69;;;27.89;17.27
42691;BME280;28306;55.744;37.578;2022-12-29T14:13:38;99794.97;;;27.98;17.26
42691;BME280;28306;55.744;37.578;2022-12-29T14:16:04;99788.16;;;27.96;17.15
42691;BME280;28306;55.744;37.578;2022-12-29T14:18:34;99799.63;;;27.98;17.38
42691;BME280;28306;55.744;37.578;2022-12-29T14:23:46;99786.78;;;27.93;17.29
42691;BME280;28306;55.744;37.578;2022-12-29T14:28:53;99793.31;;;27.97;17.24
42691;BME280;28306;55.744;37.578;2022-12-29T14:39:33;99784.59;;;27.90;17.12
42691;BME280;28306;55.744;37.578;2022-12-29T14:45:06;99802.34;;;28.03;17.00
42691;BME280;28306;55.744;37.578;2022-12-29T14:47:38;99787.34;;;27.90;17.29
42691;BME280;28306;55.744;37.578;2022-12-29T14:52:32;99794.16;;;27.98;17.14
42691;BME280;28306;55.744;37.578;2022-12-29T14:57:43;99803.19;;;27.98;16.98
42691;BME280;28306;55.744;37.578;2022-12-29T15:00:21;99805.91;;;27.98;17.14
42691;BME280;28306;55.744;37.578;2022-12-29T15:02:51;99799.63;;;27.98;17.19
42691;BME280;28306;55.744;37.578;2022-12-29T15:05:43;99799.78;;;28.17;17.04
42691;BME280;28306;55.744;37.578;2022-12-29T15:08:06;99801.22;;;28.04;17.22
42691;BME280;28306;55.744;37.578;2022-12-29T15:10:43;99799.03;;;28.01;17.17
42691;BME280;28306;55.744;37.578;2022-12-29T15:13:17;99801.50;;;28.02;17.48
42691;BME280;28306;55.744;37.578;2022-12-29T15:15:43;99799.50;;;28.18;17.09
42691;BME280;28306;55.744;37.578;2022-12-29T15:20:40;99796.59;;;27.99;17.30
42691;BME280;28306;55.744;37.578;2022-12-29T15:23:12;99807.81;;;28.03;17.55
42691;BME280;28306;55.744;37.578;2022-12-29T15:26:06;99806.69;;;28.09;17.25